sensor_id;sensor_type;location;lat;lon;timestamp;temperature;humidity
22974;DHT22;11653;50.848;4.584;2023-04-01T00:00:47;10.70;99.90
22974;DHT22;11653;50.848;4.584;2023-04-01T00:03:13;10.70;99.90
22974;DHT22;11653;50.848;4.584;2023-04-01T00:05:39;10.70;99.90
22974;DHT22;11653;50.848;4.584;2023-04-01T00:08:04;10.70;99.90
22974;DHT22;11653;50.848;4.584;2023-04-01T00:10:30;10.80;99.90
22974;DHT22;11653;50.848;4.584;2023-04-01T00:12:56;10.80;99.90
22974;DHT22;11653;50.848;4.584;2023-04-01T00:15:22;10.80;99.90
22974;DHT22;11653;50.848;4.584;2023-04-01T00:17:48;10.80;99.90
22974;DHT22;11653;50.848;4.584;2023-04-01T00:20:13;10.80;99.90
22974;DHT22;11653;50.848;4.584;2023-04-01T00:22:40;10.70;99.90
22974;DHT22;11653;50.848;4.584;2023-04-01T00:25:06;10.70;99.90
22974;DHT22;11653;50.848;4.584;2023-04-01T00:27:32;10.80;99.90
22974;DHT22;11653;50.848;4.584;2023-04-01T00:29:58;10.80;99.90
22974;DHT22;11653;50.848;4.584;2023-04-01T00:32:24;10.80;99.90
22974;DHT22;11653;50.848;4.584;2023-04-01T00:34:50;10.70;99.90
22974;DHT22;11653;50.848;4.584;2023-04-01T00:37:17;10.70;99.90
22974;DHT22;11653;50.848;4.584;2023-04-01T00:39:43;10.70;99.90
22974;DHT22;11653;50.848;4.584;2023-04-01T00:42:10;10.60;99.90
22974;DHT22;11653;50.848;4.584;2023-04-01T00:44:37;10.60;99.90
22974;DHT22;11653;50.848;4.584;2023-04-01T00:47:03;10.60;99.90
22974;DHT22;11653;50.848;4.584;2023-04-01T00:49:32;10.70;99.90
22974;DHT22;11653;50.848;4.584;2023-04-01T00:52:00;10.70;99.90
22974;DHT22;11653;50.848;4.584;2023-04-01T00:54:28;10.70;99.90
22974;DHT22;11653;50.848;4.584;2023-04-01T00:56:59;10.80;99.90
22974;DHT22;11653;50.848;4.584;2023-04-01T00:59:32;10.70;99.90
22974;DHT22;11653;50.848;4.584;2023-04-01T01:01:59;10.60;99.90
22974;DHT22;11653;50.848;4.584;2023-04-01T01:04:28;10.60;99.90
22974;DHT22;11653;50.848;4.584;2023-04-01T01:06:57;10.70;99.90
22974;DHT22;11653;50.848;4.584;2023-04-01T01:27:01;10.60;99.90
22974;DHT22;11653;50.848;4.584;2023-04-01T01:29:42;10.60;99.90
22974;DHT22;11653;50.848;4.584;2023-04-01T01:38:00;10.60;99.90
22974;DHT22;11653;50.848;4.584;2023-04-01T01:40:28;10.60;99.90
22974;DHT22;11653;50.848;4.584;2023-04-01T01:42:59;10.70;99.90
22974;DHT22;11653;50.848;4.584;2023-04-01T01:45:27;10.70;99.90
22974;DHT22;11653;50.848;4.584;2023-04-01T01:47:55;10.70;99.90
22974;DHT22;11653;50.848;4.584;2023-04-01T01:50:24;10.70;99.90
22974;DHT22;11653;50.848;4.584;2023-04-01T01:53:12;10.70;99.90
22974;DHT22;11653;50.848;4.584;2023-04-01T01:55:41;10.70;99.90
22974;DHT22;11653;50.848;4.584;2023-04-01T02:00:50;10.80;99.90
22974;DHT22;11653;50.848;4.584;2023-04-01T02:03:17;10.80;99.90
22974;DHT22;11653;50.848;4.584;2023-04-01T02:05:46;10.80;99.90
22974;DHT22;11653;50.848;4.584;2023-04-01T02:08:17;10.60;99.90
22974;DHT22;11653;50.848;4.584;2023-04-01T02:11:08;10.50;99.90
22974;DHT22;11653;50.848;4.584;2023-04-01T02:13:51;10.50;99.90
22974;DHT22;11653;50.848;4.584;2023-04-01T02:16:34;10.50;99.90
22974;DHT22;11653;50.848;4.584;2023-04-01T02:19:01;10.50;99.90
22974;DHT22;11653;50.848;4.584;2023-04-01T02:21:31;10.50;99.90
22974;DHT22;11653;50.848;4.584;2023-04-01T02:23:59;10.50;99.90
22974;DHT22;11653;50.848;4.584;2023-04-01T02:26:26;10.40;99.90
22974;DHT22;11653;50.848;4.584;2023-04-01T02:28:56;10.40;99.90
22974;DHT22;11653;50.848;4.584;2023-04-01T02:31:23;10.40;99.90
22974;DHT22;11653;50.848;4.584;2023-04-01T02:33:50;10.40;99.90
22974;DHT22;11653;50.848;4.584;2023-04-01T02:36:17;10.30;99.90
22974;DHT22;11653;50.848;4.584;2023-04-01T02:38:44;10.40;99.90
22974;DHT22;11653;50.848;4.584;2023-04-01T02:41:11;10.40;99.90
22974;DHT22;11653;50.848;4.584;2023-04-01T02:43:37;10.50;99.90
22974;DHT22;11653;50.848;4.584;2023-04-01T02:46:03;10.50;99.90
22974;DHT22;11653;50.848;4.584;2023-04-01T02:48:29;10.50;99.90
22974;DHT22;11653;50.848;4.584;2023-04-01T02:50:55;10.50;99.90
22974;DHT22;11653;50.848;4.584;2023-04-01T02:53:21;10.40;99.90
22974;DHT22;11653;50.848;4.584;2023-04-01T02:55:47;10.30;99.90
22974;DHT22;11653;50.848;4.584;2023-04-01T02:58:16;10.20;99.90
22974;DHT22;11653;50.848;4.584;2023-04-01T03:00:41;10.20;99.90
22974;DHT22;11653;50.848;4.584;2023-04-01T03:03:11;10.30;99.90
22974;DHT22;11653;50.848;4.584;2023-04-01T03:05:38;10.20;99.90
22974;DHT22;11653;50.848;4.584;2023-04-01T03:08:04;10.20;99.90
22974;DHT22;11653;50.848;4.584;2023-04-01T03:10:31;10.20;99.90
22974;DHT22;11653;50.848;4.584;2023-04-01T03:12:57;10.20;99.90
22974;DHT22;11653;50.848;4.584;2023-04-01T03:15:23;10.20;99.90
22974;DHT22;11653;50.848;4.584;2023-04-01T03:17:48;10.30;99.90
22974;DHT22;11653;50.848;4.584;2023-04-01T03:20:15;10.30;99.90
22974;DHT22;11653;50.848;4.584;2023-04-01T03:22:41;10.30;99.90
22974;DHT22;11653;50.848;4.584;2023-04-01T03:25:13;10.30;99.90
22974;DHT22;11653;50.848;4.584;2023-04-01T03:27:38;10.40;99.90
22974;DHT22;11653;50.848;4.584;2023-04-01T03:30:05;10.40;99.90
22974;DHT22;11653;50.848;4.584;2023-04-01T03:32:31;10.40;99.90
22974;DHT22;11653;50.848;4.584;2023-04-01T03:34:57;10.30;99.90
22974;DHT22;11653;50.848;4.584;2023-04-01T03:37:23;10.30;99.90
22974;DHT22;11653;50.848;4.584;2023-04-01T03:39:49;10.30;99.90
22974;DHT22;11653;50.848;4.584;2023-04-01T03:42:15;10.30;99.90
22974;DHT22;11653;50.848;4.584;2023-04-01T03:44:41;10.20;99.90
22974;DHT22;11653;50.848;4.584;2023-04-01T03:47:06;10.30;99.90
22974;DHT22;11653;50.848;4.584;2023-04-01T03:49:34;10.30;99.90
22974;DHT22;11653;50.848;4.584;2023-04-01T03:52:00;10.30;99.90
22974;DHT22;11653;50.848;4.584;2023-04-01T03:54:25;10.30;99.90
22974;DHT22;11653;50.848;4.584;2023-04-01T03:56:51;10.30;99.90
22974;DHT22;11653;50.848;4.584;2023-04-01T03:59:17;10.30;99.90
22974;DHT22;11653;50.848;4.584;2023-04-01T04:01:42;10.40;99.90
22974;DHT22;11653;50.848;4.584;2023-04-01T04:04:11;10.40;99.90
22974;DHT22;11653;50.848;4.584;2023-04-01T04:06:38;10.40;99.90
22974;DHT22;11653;50.848;4.584;2023-04-01T04:09:03;10.40;99.90
22974;DHT22;11653;50.848;4.584;2023-04-01T04:11:31;10.30;99.90
22974;DHT22;11653;50.848;4.584;2023-04-01T04:13:57;10.40;99.90
22974;DHT22;11653;50.848;4.584;2023-04-01T04:16:23;10.40;99.90
22974;DHT22;11653;50.848;4.584;2023-04-01T04:18:48;10.30;99.90
22974;DHT22;11653;50.848;4.584;2023-04-01T04:21:15;10.30;99.90
22974;DHT22;11653;50.848;4.584;2023-04-01T04:23:41;10.30;99.90
22974;DHT22;11653;50.848;4.584;2023-04-01T04:26:09;10.30;99.90
22974;DHT22;11653;50.848;4.584;2023-04-01T04:28:35;10.20;99.90
22974;DHT22;11653;50.848;4.584;2023-04-01T04:31:01;10.30;99.90
22974;DHT22;11653;50.848;4.584;2023-04-01T04:33:27;10.30;99.90
22974;DHT22;11653;50.848;4.584;2023-04-01T04:35:55;10.30;99.90
22974;DHT22;11653;50.848;4.584;2023-04-01T04:38:21;10.40;99.90
22974;DHT22;11653;50.848;4.584;2023-04-01T04:40:47;10.30;99.90
22974;DHT22;11653;50.848;4.584;2023-04-01T04:43:15;10.30;99.90
22974;DHT22;11653;50.848;4.584;2023-04-01T04:45:41;10.20;99.90
22974;DHT22;11653;50.848;4.584;2023-04-01T04:48:11;10.20;99.90
22974;DHT22;11653;50.848;4.584;2023-04-01T04:50:41;10.20;99.90
22974;DHT22;11653;50.848;4.584;2023-04-01T04:53:10;10.20;99.90
22974;DHT22;11653;50.848;4.584;2023-04-01T04:55:35;10.20;99.90
22974;DHT22;11653;50.848;4.584;2023-04-01T04:58:01;10.20;99.90
22974;DHT22;11653;50.848;4.584;2023-04-01T05:00:27;10.20;99.90
22974;DHT22;11653;50.848;4.584;2023-04-01T05:02:52;10.20;99.90
22974;DHT22;11653;50.848;4.584;2023-04-01T05:05:18;10.20;99.90
22974;DHT22;11653;50.848;4.584;2023-04-01T05:07:44;10.30;99.90
22974;DHT22;11653;50.848;4.584;2023-04-01T05:10:10;10.30;99.90
22974;DHT22;11653;50.848;4.584;2023-04-01T05:12:36;10.30;99.90
22974;DHT22;11653;50.848;4.584;2023-04-01T05:15:05;10.30;99.90
22974;DHT22;11653;50.848;4.584;2023-04-01T05:17:30;10.30;99.90
22974;DHT22;11653;50.848;4.584;2023-04-01T05:19:56;10.30;99.90
22974;DHT22;11653;50.848;4.584;2023-04-01T05:22:22;10.30;99.90
22974;DHT22;11653;50.848;4.584;2023-04-01T05:24:48;10.40;99.90
22974;DHT22;11653;50.848;4.584;2023-04-01T05:27:14;10.40;99.90
22974;DHT22;11653;50.848;4.584;2023-04-01T05:29:40;10.30;99.90
22974;DHT22;11653;50.848;4.584;2023-04-01T05:32:05;10.40;99.90
22974;DHT22;11653;50.848;4.584;2023-04-01T05:34:31;10.40;99.90
22974;DHT22;11653;50.848;4.584;2023-04-01T05:36:57;10.40;99.90
22974;DHT22;11653;50.848;4.584;2023-04-01T05:39:22;10.40;99.90
22974;DHT22;11653;50.848;4.584;2023-04-01T05:41:49;10.30;99.90
22974;DHT22;11653;50.848;4.584;2023-04-01T05:44:14;10.20;99.90
22974;DHT22;11653;50.848;4.584;2023-04-01T05:46:40;10.20;99.90
22974;DHT22;11653;50.848;4.584;2023-04-01T05:49:06;10.20;99.90
22974;DHT22;11653;50.848;4.584;2023-04-01T05:51:31;10.10;99.90
22974;DHT22;11653;50.848;4.584;2023-04-01T05:53:57;10.20;99.90
22974;DHT22;11653;50.848;4.584;2023-04-01T05:56:23;10.20;99.90
22974;DHT22;11653;50.848;4.584;2023-04-01T05:58:52;10.10;99.90
22974;DHT22;11653;50.848;4.584;2023-04-01T06:01:19;10.20;99.90
22974;DHT22;11653;50.848;4.584;2023-04-01T06:03:45;10.20;99.90
22974;DHT22;11653;50.848;4.584;2023-04-01T06:06:28;10.10;99.90
22974;DHT22;11653;50.848;4.584;2023-04-01T06:08:56;10.20;99.90
22974;DHT22;11653;50.848;4.584;2023-04-01T06:11:33;10.20;99.90
22974;DHT22;11653;50.848;4.584;2023-04-01T06:35:17;10.10;99.90
22974;DHT22;11653;50.848;4.584;2023-04-01T06:40:57;10.20;99.90
22974;DHT22;11653;50.848;4.584;2023-04-01T06:46:18;10.20;99.90
22974;DHT22;11653;50.848;4.584;2023-04-01T06:49:05;10.20;99.90
22974;DHT22;11653;50.848;4.584;2023-04-01T06:54:20;10.20;99.90
22974;DHT22;11653;50.848;4.584;2023-04-01T06:56:51;10.20;99.90
22974;DHT22;11653;50.848;4.584;2023-04-01T06:59:29;10.10;99.90
22974;DHT22;11653;50.848;4.584;2023-04-01T07:02:09;10.20;99.90
22974;DHT22;11653;50.848;4.584;2023-04-01T07:04:42;10.20;99.90
22974;DHT22;11653;50.848;4.584;2023-04-01T07:07:27;10.30;99.90
22974;DHT22;11653;50.848;4.584;2023-04-01T07:09:56;10.30;99.90
22974;DHT22;11653;50.848;4.584;2023-04-01T07:15:09;10.30;99.90
22974;DHT22;11653;50.848;4.584;2023-04-01T07:17:39;10.30;99.90
22974;DHT22;11653;50.848;4.584;2023-04-01T07:20:30;10.40;99.90
22974;DHT22;11653;50.848;4.584;2023-04-01T07:23:07;10.30;99.90
22974;DHT22;11653;50.848;4.584;2023-04-01T07:25:43;10.30;99.90
22974;DHT22;11653;50.848;4.584;2023-04-01T07:28:15;10.20;99.90
22974;DHT22;11653;50.848;4.584;2023-04-01T07:36:19;10.40;99.90
22974;DHT22;11653;50.848;4.584;2023-04-01T07:44:34;10.30;99.90
22974;DHT22;11653;50.848;4.584;2023-04-01T07:55:21;10.50;99.90
22974;DHT22;11653;50.848;4.584;2023-04-01T07:58:18;10.40;99.90
22974;DHT22;11653;50.848;4.584;2023-04-01T08:06:37;10.60;99.90
22974;DHT22;11653;50.848;4.584;2023-04-01T08:17:27;10.50;99.90
22974;DHT22;11653;50.848;4.584;2023-04-01T08:20:04;10.60;99.90
22974;DHT22;11653;50.848;4.584;2023-04-01T08:22:44;10.60;99.90
22974;DHT22;11653;50.848;4.584;2023-04-01T08:25:20;10.70;99.90
22974;DHT22;11653;50.848;4.584;2023-04-01T08:28:09;10.80;99.90
22974;DHT22;11653;50.848;4.584;2023-04-01T08:31:04;10.80;99.90
22974;DHT22;11653;50.848;4.584;2023-04-01T08:33:32;10.70;99.90
22974;DHT22;11653;50.848;4.584;2023-04-01T08:36:08;10.70;99.90
22974;DHT22;11653;50.848;4.584;2023-04-01T08:41:39;10.80;99.90
22974;DHT22;11653;50.848;4.584;2023-04-01T08:56:00;10.70;99.90
22974;DHT22;11653;50.848;4.584;2023-04-01T08:58:44;10.80;99.90
22974;DHT22;11653;50.848;4.584;2023-04-01T09:04:50;10.90;99.90
22974;DHT22;11653;50.848;4.584;2023-04-01T09:27:02;11.20;99.90
22974;DHT22;11653;50.848;4.584;2023-04-01T09:48:54;11.40;99.90
22974;DHT22;11653;50.848;4.584;2023-04-01T10:14:00;11.60;99.90
22974;DHT22;11653;50.848;4.584;2023-04-01T10:27:47;11.80;99.90
22974;DHT22;11653;50.848;4.584;2023-04-01T10:36:53;12.00;99.90
22974;DHT22;11653;50.848;4.584;2023-04-01T10:51:12;11.70;99.90
22974;DHT22;11653;50.848;4.584;2023-04-01T11:02:12;11.90;99.90
22974;DHT22;11653;50.848;4.584;2023-04-01T11:13:47;12.00;99.90
22974;DHT22;11653;50.848;4.584;2023-04-01T11:27:55;12.10;99.90
22974;DHT22;11653;50.848;4.584;2023-04-01T11:45:05;11.80;99.90
22974;DHT22;11653;50.848;4.584;2023-04-01T12:20:24;12.40;99.90
22974;DHT22;11653;50.848;4.584;2023-04-01T12:31:22;12.60;99.90
22974;DHT22;11653;50.848;4.584;2023-04-01T12:37:08;12.10;99.90
22974;DHT22;11653;50.848;4.584;2023-04-01T12:45:21;11.80;99.90
22974;DHT22;11653;50.848;4.584;2023-04-01T12:50:34;11.90;99.90
22974;DHT22;11653;50.848;4.584;2023-04-01T12:53:51;11.90;99.90
22974;DHT22;11653;50.848;4.584;2023-04-01T13:10:17;11.50;99.90
22974;DHT22;11653;50.848;4.584;2023-04-01T13:18:13;11.60;99.90
22974;DHT22;11653;50.848;4.584;2023-04-01T13:20:58;11.60;99.90
22974;DHT22;11653;50.848;4.584;2023-04-01T13:23:56;11.60;99.90
22974;DHT22;11653;50.848;4.584;2023-04-01T13:29:18;11.60;99.90
22974;DHT22;11653;50.848;4.584;2023-04-01T13:40:42;11.40;99.90
22974;DHT22;11653;50.848;4.584;2023-04-01T13:43:16;11.50;99.90
22974;DHT22;11653;50.848;4.584;2023-04-01T13:48:45;11.60;99.90
22974;DHT22;11653;50.848;4.584;2023-04-01T14:05:15;11.50;99.90
22974;DHT22;11653;50.848;4.584;2023-04-01T14:13:52;11.80;99.90
22974;DHT22;11653;50.848;4.584;2023-04-01T14:28:30;11.80;99.90
22974;DHT22;11653;50.848;4.584;2023-04-01T14:40:33;11.60;99.90
22974;DHT22;11653;50.848;4.584;2023-04-01T14:45:59;11.70;99.90
22974;DHT22;11653;50.848;4.584;2023-04-01T14:48:34;11.90;99.90
22974;DHT22;11653;50.848;4.584;2023-04-01T14:54:03;12.00;99.90
22974;DHT22;11653;50.848;4.584;2023-04-01T14:56:40;12.10;99.90
22974;DHT22;11653;50.848;4.584;2023-04-01T14:59:30;12.20;99.90
22974;DHT22;11653;50.848;4.584;2023-04-01T15:05:38;12.20;99.90
22974;DHT22;11653;50.848;4.584;2023-04-01T15:07:52;12.00;99.90
22974;DHT22;11653;50.848;4.584;2023-04-01T15:21:21;11.70;99.90
22974;DHT22;11653;50.848;4.584;2023-04-01T15:24:13;11.60;99.90
22974;DHT22;11653;50.848;4.584;2023-04-01T15:29:39;11.70;99.90
22974;DHT22;11653;50.848;4.584;2023-04-01T15:43:25;11.80;99.90
22974;DHT22;11653;50.848;4.584;2023-04-01T15:46:09;11.70;99.90
22974;DHT22;11653;50.848;4.584;2023-04-01T15:49:01;11.70;99.90
22974;DHT22;11653;50.848;4.584;2023-04-01T15:51:41;11.70;99.90
22974;DHT22;11653;50.848;4.584;2023-04-01T15:57:48;11.70;99.90
22974;DHT22;11653;50.848;4.584;2023-04-01T16:11:40;11.20;99.90
22974;DHT22;11653;50.848;4.584;2023-04-01T16:14:31;11.10;99.90
22974;DHT22;11653;50.848;4.584;2023-04-01T16:19:41;11.20;99.90
22974;DHT22;11653;50.848;4.584;2023-04-01T16:22:17;11.20;99.90
22974;DHT22;11653;50.848;4.584;2023-04-01T16:30:44;11.20;99.90
22974;DHT22;11653;50.848;4.584;2023-04-01T16:36:21;11.20;99.90
22974;DHT22;11653;50.848;4.584;2023-04-01T16:44:27;10.80;99.90
22974;DHT22;11653;50.848;4.584;2023-04-01T16:47:20;10.80;99.90
22974;DHT22;11653;50.848;4.584;2023-04-01T16:49:49;10.80;99.90
22974;DHT22;11653;50.848;4.584;2023-04-01T16:55:12;10.80;99.90
22974;DHT22;11653;50.848;4.584;2023-04-01T16:57:52;10.80;99.90
22974;DHT22;11653;50.848;4.584;2023-04-01T17:00:48;10.70;99.90
22974;DHT22;11653;50.848;4.584;2023-04-01T17:03:26;10.70;99.90
22974;DHT22;11653;50.848;4.584;2023-04-01T17:22:32;10.60;99.90
22974;DHT22;11653;50.848;4.584;2023-04-01T17:28:14;10.50;99.90
22974;DHT22;11653;50.848;4.584;2023-04-01T17:33:44;10.50;99.90
22974;DHT22;11653;50.848;4.584;2023-04-01T17:36:27;10.50;99.90
22974;DHT22;11653;50.848;4.584;2023-04-01T17:39:29;10.50;99.90
22974;DHT22;11653;50.848;4.584;2023-04-01T17:42:16;10.60;99.90
22974;DHT22;11653;50.848;4.584;2023-04-01T18:01:46;10.60;99.90
22974;DHT22;11653;50.848;4.584;2023-04-01T18:15:49;10.60;99.90
22974;DHT22;11653;50.848;4.584;2023-04-01T18:21:15;10.50;99.90
22974;DHT22;11653;50.848;4.584;2023-04-01T18:24:16;10.60;99.90
22974;DHT22;11653;50.848;4.584;2023-04-01T18:26:49;10.50;99.90
22974;DHT22;11653;50.848;4.584;2023-04-01T18:31:46;10.60;99.90
22974;DHT22;11653;50.848;4.584;2023-04-01T18:37:55;10.60;99.90
22974;DHT22;11653;50.848;4.584;2023-04-01T18:40:51;10.50;99.90
22974;DHT22;11653;50.848;4.584;2023-04-01T18:43:43;10.50;99.90
22974;DHT22;11653;50.848;4.584;2023-04-01T18:49:33;10.50;99.90
22974;DHT22;11653;50.848;4.584;2023-04-01T18:52:13;10.50;99.90
22974;DHT22;11653;50.848;4.584;2023-04-01T18:57:15;10.50;99.90
22974;DHT22;11653;50.848;4.584;2023-04-01T19:02:15;10.50;99.90
22974;DHT22;11653;50.848;4.584;2023-04-01T19:04:57;10.60;99.90
22974;DHT22;11653;50.848;4.584;2023-04-01T19:15:44;10.40;99.90
22974;DHT22;11653;50.848;4.584;2023-04-01T19:21:07;10.40;99.90
22974;DHT22;11653;50.848;4.584;2023-04-01T19:23:51;10.50;99.90
22974;DHT22;11653;50.848;4.584;2023-04-01T19:26:40;10.50;99.90
22974;DHT22;11653;50.848;4.584;2023-04-01T19:34:58;10.50;99.90
22974;DHT22;11653;50.848;4.584;2023-04-01T19:37:33;10.40;99.90
22974;DHT22;11653;50.848;4.584;2023-04-01T19:40:08;10.40;99.90
22974;DHT22;11653;50.848;4.584;2023-04-01T19:45:47;10.40;99.90
22974;DHT22;11653;50.848;4.584;2023-04-01T19:51:09;10.40;99.90
22974;DHT22;11653;50.848;4.584;2023-04-01T19:56:24;10.40;99.90
22974;DHT22;11653;50.848;4.584;2023-04-01T20:04:37;10.40;99.90
22974;DHT22;11653;50.848;4.584;2023-04-01T20:15:03;10.40;99.90
22974;DHT22;11653;50.848;4.584;2023-04-01T20:17:38;10.40;99.90
22974;DHT22;11653;50.848;4.584;2023-04-01T20:25:26;10.40;99.90
22974;DHT22;11653;50.848;4.584;2023-04-01T20:33:37;10.30;99.90
22974;DHT22;11653;50.848;4.584;2023-04-01T20:36:30;10.40;99.90
22974;DHT22;11653;50.848;4.584;2023-04-01T20:55:56;10.50;99.90
22974;DHT22;11653;50.848;4.584;2023-04-01T20:58:30;10.60;99.90
22974;DHT22;11653;50.848;4.584;2023-04-01T21:01:20;10.70;99.90
22974;DHT22;11653;50.848;4.584;2023-04-01T21:06:39;10.80;99.90
22974;DHT22;11653;50.848;4.584;2023-04-01T21:09:30;10.80;99.90
22974;DHT22;11653;50.848;4.584;2023-04-01T21:34:42;10.70;99.90
22974;DHT22;11653;50.848;4.584;2023-04-01T21:37:26;10.80;99.90
22974;DHT22;11653;50.848;4.584;2023-04-01T21:43:22;10.90;99.90
22974;DHT22;11653;50.848;4.584;2023-04-01T21:48:37;10.90;99.90
22974;DHT22;11653;50.848;4.584;2023-04-01T22:00:07;10.90;99.90
22974;DHT22;11653;50.848;4.584;2023-04-01T22:11:40;11.00;99.90
22974;DHT22;11653;50.848;4.584;2023-04-01T22:14:22;11.10;99.90
22974;DHT22;11653;50.848;4.584;2023-04-01T22:20:14;11.20;99.90
22974;DHT22;11653;50.848;4.584;2023-04-01T22:31:22;11.10;99.90
22974;DHT22;11653;50.848;4.584;2023-04-01T22:34:05;11.10;99.90
22974;DHT22;11653;50.848;4.584;2023-04-01T22:45:00;11.00;99.90
22974;DHT22;11653;50.848;4.584;2023-04-01T22:47:50;11.00;99.90
22974;DHT22;11653;50.848;4.584;2023-04-01T22:51:11;10.90;99.90
22974;DHT22;11653;50.848;4.584;2023-04-01T22:56:20;11.10;99.90
22974;DHT22;11653;50.848;4.584;2023-04-01T23:01:47;10.90;99.90
22974;DHT22;11653;50.848;4.584;2023-04-01T23:04:16;10.90;99.90
22974;DHT22;11653;50.848;4.584;2023-04-01T23:06:48;10.90;99.90
22974;DHT22;11653;50.848;4.584;2023-04-01T23:09:29;10.90;99.90
22974;DHT22;11653;50.848;4.584;2023-04-01T23:12:05;10.90;99.90
22974;DHT22;11653;50.848;4.584;2023-04-01T23:14:51;10.90;99.90
22974;DHT22;11653;50.848;4.584;2023-04-01T23:23:03;10.80;99.90
22974;DHT22;11653;50.848;4.584;2023-04-01T23:25:56;10.80;99.90
22974;DHT22;11653;50.848;4.584;2023-04-01T23:28:44;10.80;99.90
22974;DHT22;11653;50.848;4.584;2023-04-01T23:31:43;10.90;99.90
22974;DHT22;11653;50.848;4.584;2023-04-01T23:36:53;10.80;99.90
22974;DHT22;11653;50.848;4.584;2023-04-01T23:39:37;10.60;99.90
22974;DHT22;11653;50.848;4.584;2023-04-01T23:44:43;10.40;99.90
22974;DHT22;11653;50.848;4.584;2023-04-01T23:47:16;10.20;99.90
22974;DHT22;11653;50.848;4.584;2023-04-01T23:49:46;10.30;99.90
22974;DHT22;11653;50.848;4.584;2023-04-01T23:54:58;10.20;99.90
22974;DHT22;11653;50.848;4.584;2023-04-01T23:57:33;10.30;99.90
